Time;durP1;ratioP1;P1;durP2;ratioP2;P2;SDS_P1;SDS_P2;PMS_P1;PMS_P2;Temp;Humidity;BMP_temperature;BMP_pressure;BME280_temperature;BME280_humidity;BME280_pressure;Samples;Min_cycle;Max_cycle;Signal;HPM_P1;HPM_P2
2022/12/21 00:01:20;;;;;;;0.60;0.60;;;5.20;99.90;;;;;;5119247;27;20574;-67
2022/12/21 00:03:46;;;;;;;0.60;0.60;;;5.20;99.90;;;;;;5137570;27;20166;-68
2022/12/21 00:06:13;;;;;;;0.50;0.50;;;5.10;99.90;;;;;;5118538;27;20186;-68
2022/12/21 00:08:42;;;;;;;0.52;0.52;;;5.10;99.90;;;;;;5137317;27;20675;-68
2022/12/21 00:11:09;;;;;;;0.50;0.50;;;5.00;99.90;;;;;;5137401;27;20697;-68
2022/12/21 00:13:34;;;;;;;0.50;0.50;;;5.10;99.90;;;;;;5137362;27;20177;-69
2022/12/21 00:16:06;;;;;;;0.50;0.50;;;5.10;99.90;;;;;;5137020;27;20621;-68
2022/12/21 00:18:35;;;;;;;0.40;0.40;;;5.10;99.90;;;;;;5137165;27;20151;-69
2022/12/21 00:21:07;;;;;;;0.60;0.60;;;5.20;99.90;;;;;;5118820;27;20185;-69
2022/12/21 00:23:34;;;;;;;0.50;0.50;;;5.10;99.90;;;;;;5137004;27;20174;-69
2022/12/21 00:26:02;;;;;;;0.57;0.57;;;5.00;99.90;;;;;;5101714;27;20576;-69
2022/12/21 00:28:28;;;;;;;0.50;0.50;;;5.00;99.90;;;;;;5118540;27;20676;-69
2022/12/21 00:30:54;;;;;;;0.40;0.40;;;5.10;99.90;;;;;;5125258;27;20174;-69
2022/12/21 00:33:21;;;;;;;0.50;0.50;;;5.00;99.90;;;;;;5157656;27;20151;-68
2022/12/21 00:35:51;;;;;;;0.52;0.52;;;5.00;99.90;;;;;;5157682;27;20151;-68
2022/12/21 00:38:18;;;;;;;0.47;0.47;;;4.90;99.90;;;;;;5148287;27;20250;-68
2022/12/21 00:40:44;;;;;;;0.50;0.50;;;4.90;99.90;;;;;;5117599;27;20171;-69
2022/12/21 00:43:10;;;;;;;0.50;0.50;;;4.80;99.90;;;;;;5149690;27;20691;-68
2022/12/21 00:45:36;;;;;;;0.40;0.40;;;4.80;99.90;;;;;;5138254;27;20170;-70
2022/12/21 00:48:02;;;;;;;0.43;0.43;;;4.80;99.90;;;;;;5138677;27;20202;-69
2022/12/21 00:50:27;;;;;;;0.55;0.55;;;4.70;99.90;;;;;;5157449;27;20613;-68
2022/12/21 00:52:54;;;;;;;0.52;0.52;;;4.60;99.90;;;;;;5157333;27;20155;-69
2022/12/21 00:55:19;;;;;;;0.50;0.50;;;4.70;99.90;;;;;;5157280;27;20155;-68
2022/12/21 00:57:45;;;;;;;0.50;0.50;;;4.60;99.90;;;;;;5157627;27;20670;-69
2022/12/21 01:00:12;;;;;;;0.70;0.70;;;4.50;99.90;;;;;;5157157;27;20161;-69
2022/12/21 01:02:37;;;;;;;0.47;0.47;;;4.50;99.90;;;;;;5156649;27;20199;-69
2022/12/21 01:05:03;;;;;;;0.57;0.57;;;4.40;99.90;;;;;;5138484;27;20241;-69
2022/12/21 01:07:29;;;;;;;0.60;0.60;;;4.40;99.90;;;;;;5157561;27;20227;-69
2022/12/21 01:09:55;;;;;;;0.57;0.57;;;4.40;99.90;;;;;;5156906;27;20186;-70
2022/12/21 01:12:21;;;;;;;0.47;0.47;;;4.30;99.90;;;;;;5138147;27;20525;-69
2022/12/21 01:14:46;;;;;;;0.50;0.50;;;4.30;99.90;;;;;;5136078;27;20155;-69
2022/12/21 01:17:12;;;;;;;0.50;0.50;;;4.20;99.90;;;;;;5135623;27;20148;-70
2022/12/21 01:19:38;;;;;;;0.40;0.40;;;4.20;99.90;;;;;;5135677;27;20206;-69
2022/12/21 01:22:03;;;;;;;0.52;0.52;;;4.20;99.90;;;;;;5135571;27;20155;-70
2022/12/21 01:24:29;;;;;;;0.50;0.50;;;4.20;99.90;;;;;;5135551;27;20208;-70
2022/12/21 01:26:55;;;;;;;0.55;0.55;;;4.20;99.90;;;;;;5141925;27;20261;-69
2022/12/21 01:29:21;;;;;;;0.50;0.50;;;4.10;99.90;;;;;;5133610;27;20285;-68
2022/12/21 01:31:46;;;;;;;0.55;0.55;;;4.10;99.90;;;;;;5116895;27;20186;-70
2022/12/21 01:34:12;;;;;;;0.50;0.50;;;4.10;99.90;;;;;;5116982;27;20234;-71
2022/12/21 01:36:38;;;;;;;0.60;0.60;;;4.00;99.90;;;;;;5135431;27;20151;-70
2022/12/21 01:39:05;;;;;;;0.50;0.50;;;4.00;99.90;;;;;;5116386;27;20182;-70
2022/12/21 01:41:31;;;;;;;0.70;0.70;;;3.90;99.90;;;;;;5135165;27;20175;-70
2022/12/21 01:44:02;;;;;;;0.63;0.63;;;3.90;99.90;;;;;;5134995;27;20222;-70
2022/12/21 01:46:34;;;;;;;0.50;0.50;;;3.90;99.90;;;;;;5135273;27;20609;-69
2022/12/21 01:49:09;;;;;;;0.40;0.40;;;3.90;99.90;;;;;;5135013;27;20669;-69
2022/12/21 01:51:36;;;;;;;0.70;0.70;;;3.90;99.90;;;;;;5115860;27;20170;-69
2022/12/21 01:54:17;;;;;;;0.60;0.60;;;3.80;99.90;;;;;;5116744;27;20629;-69
2022/12/21 01:56:47;;;;;;;0.50;0.50;;;3.80;99.90;;;;;;5134992;27;20232;-69
2022/12/21 01:59:20;;;;;;;0.50;0.50;;;3.70;99.90;;;;;;5134922;27;20151;-71
2022/12/21 02:01:46;;;;;;;0.57;0.57;;;3.70;99.90;;;;;;5134887;27;20622;-70
2022/12/21 02:04:12;;;;;;;0.60;0.60;;;3.70;99.90;;;;;;5119946;22;20324;-71
2022/12/21 02:06:46;;;;;;;0.50;0.50;;;3.60;99.90;;;;;;5114526;28;20156;-71
2022/12/21 02:09:14;;;;;;;0.50;0.50;;;3.60;99.90;;;;;;5114542;28;20191;-72
2022/12/21 02:11:40;;;;;;;0.50;0.50;;;3.60;99.90;;;;;;5114588;28;20144;-71
2022/12/21 02:14:13;;;;;;;0.50;0.50;;;3.50;99.90;;;;;;5096248;28;20170;-71
2022/12/21 02:17:14;;;;;;;0.70;0.70;;;3.40;99.90;;;;;;5114452;28;20164;-71
2022/12/21 02:20:29;;;;;;;0.60;0.60;;;3.40;99.90;;;;;;5114548;28;20233;-71
2022/12/21 02:23:12;;;;;;;0.60;0.60;;;3.40;99.90;;;;;;5114268;28;20168;-71
2022/12/21 02:25:53;;;;;;;0.45;0.45;;;3.40;99.90;;;;;;5114378;28;20190;-71
2022/12/21 02:28:43;;;;;;;0.70;0.70;;;3.30;99.90;;;;;;5095839;28;20197;-71
2022/12/21 02:31:31;;;;;;;0.60;0.60;;;3.30;99.90;;;;;;5096009;28;20167;-71
2022/12/21 02:34:14;;;;;;;0.70;0.70;;;3.30;99.90;;;;;;5095951;28;20160;-71
2022/12/21 02:37:28;;;;;;;0.60;0.60;;;3.30;99.90;;;;;;5093913;28;20155;-71
2022/12/21 02:40:29;;;;;;;0.47;0.47;;;3.30;99.90;;;;;;5090237;28;20185;-72
2022/12/21 02:46:28;;;;;;;0.60;0.60;;;3.30;99.90;;;;;;5066127;28;20198;-71
2022/12/21 02:49:05;;;;;;;0.50;0.50;;;3.30;99.90;;;;;;5075408;28;20566;-71
2022/12/21 02:51:56;;;;;;;0.40;0.40;;;3.30;99.90;;;;;;5093466;28;20692;-71
2022/12/21 02:54:23;;;;;;;0.60;0.60;;;3.20;99.90;;;;;;5093033;28;20618;-71
2022/12/21 02:56:49;;;;;;;0.50;0.50;;;3.30;99.90;;;;;;5093532;28;20208;-71
2022/12/21 02:59:19;;;;;;;0.60;0.60;;;3.30;99.90;;;;;;5093504;28;20161;-70
2022/12/21 03:02:22;;;;;;;0.50;0.50;;;3.20;99.90;;;;;;5107289;28;20188;-71
2022/12/21 03:05:23;;;;;;;0.50;0.50;;;3.30;99.90;;;;;;5075861;28;20367;-73
2022/12/21 03:08:01;;;;;;;0.68;0.68;;;3.20;99.90;;;;;;5064474;28;20184;-74
2022/12/21 03:10:39;;;;;;;0.55;0.55;;;3.20;99.90;;;;;;5097619;28;20245;-74
2022/12/21 03:13:18;;;;;;;0.80;0.80;;;3.20;99.90;;;;;;5097424;28;20168;-74
2022/12/21 03:16:11;;;;;;;0.60;0.60;;;3.20;99.90;;;;;;5097621;28;20201;-73
2022/12/21 03:18:58;;;;;;;0.60;0.60;;;3.10;99.90;;;;;;5097528;28;20641;-74
2022/12/21 03:21:51;;;;;;;0.50;0.50;;;3.10;99.90;;;;;;5097256;28;20156;-74
2022/12/21 03:24:22;;;;;;;0.60;0.60;;;3.10;99.90;;;;;;5097108;28;20699;-77
2022/12/21 03:27:00;;;;;;;0.63;0.63;;;3.10;99.90;;;;;;5097231;28;20239;-76
2022/12/21 03:29:30;;;;;;;0.43;0.43;;;3.10;99.90;;;;;;5078973;28;20262;-76
2022/12/21 03:32:06;;;;;;;0.50;0.50;;;3.10;99.90;;;;;;5096960;28;20203;-76
2022/12/21 03:34:38;;;;;;;0.60;0.60;;;3.00;99.90;;;;;;5079183;28;20654;-75
2022/12/21 03:37:13;;;;;;;0.70;0.70;;;2.90;99.90;;;;;;5097008;28;20213;-74
2022/12/21 03:39:44;;;;;;;0.50;0.50;;;2.90;99.90;;;;;;5076722;28;20663;-74
2022/12/21 03:42:35;;;;;;;0.50;0.50;;;2.90;99.90;;;;;;5058774;28;20218;-74
2022/12/21 03:45:06;;;;;;;0.40;0.40;;;2.90;99.90;;;;;;5071535;28;20197;-73
2022/12/21 03:47:42;;;;;;;0.50;0.50;;;2.90;99.90;;;;;;5076766;28;20209;-74
2022/12/21 03:50:19;;;;;;;0.60;0.60;;;2.80;99.90;;;;;;5066194;28;20670;-75
2022/12/21 03:53:18;;;;;;;0.50;0.50;;;2.90;99.90;;;;;;5096729;28;20152;-75
2022/12/21 03:55:48;;;;;;;0.57;0.57;;;2.80;99.90;;;;;;5096846;28;20164;-74
2022/12/21 03:58:14;;;;;;;0.60;0.60;;;2.80;99.90;;;;;;5096761;28;20163;-74
2022/12/21 04:01:06;;;;;;;0.50;0.50;;;2.60;99.90;;;;;;5091180;28;20173;-74
2022/12/21 04:03:40;;;;;;;0.50;0.50;;;2.60;99.90;;;;;;5069335;28;20311;-74
2022/12/21 04:06:12;;;;;;;0.50;0.50;;;2.60;99.90;;;;;;5096529;28;20171;-74
2022/12/21 04:08:39;;;;;;;0.63;0.63;;;2.60;99.90;;;;;;5095485;28;20200;-74
2022/12/21 04:11:05;;;;;;;0.60;0.60;;;2.60;99.90;;;;;;5095519;28;20260;-74
2022/12/21 04:13:31;;;;;;;0.70;0.70;;;2.60;99.90;;;;;;5096370;28;20141;-73
2022/12/21 04:16:05;;;;;;;0.70;0.70;;;2.60;99.90;;;;;;5095523;28;20495;-74
2022/12/21 04:21:19;;;;;;;0.55;0.55;;;2.50;99.90;;;;;;5096347;28;20748;-74
2022/12/21 04:29:13;;;;;;;0.60;0.60;;;2.20;99.90;;;;;;5075672;28;20191;-73
2022/12/21 04:31:39;;;;;;;0.55;0.55;;;2.10;99.90;;;;;;5075946;28;20243;-74
2022/12/21 04:34:05;;;;;;;0.70;0.70;;;2.00;99.90;;;;;;5075960;28;20162;-73
2022/12/21 04:39:14;;;;;;;0.50;0.50;;;2.00;99.90;;;;;;5092566;28;20199;-73
2022/12/21 04:41:40;;;;;;;0.50;0.50;;;2.00;99.90;;;;;;5094665;28;20168;-74
2022/12/21 04:44:06;;;;;;;0.52;0.52;;;1.90;99.90;;;;;;5095820;28;20188;-73
2022/12/21 04:46:31;;;;;;;0.55;0.55;;;1.90;99.90;;;;;;5094468;28;20177;-73
2022/12/21 04:48:57;;;;;;;0.68;0.68;;;2.00;99.90;;;;;;5095798;28;20184;-73
2022/12/21 04:51:24;;;;;;;0.60;0.60;;;2.00;99.90;;;;;;5093706;28;20172;-73
2022/12/21 04:53:51;;;;;;;0.52;0.52;;;2.00;99.90;;;;;;5094468;28;20551;-74
2022/12/21 04:56:17;;;;;;;0.60;0.60;;;2.00;99.90;;;;;;5095338;28;20249;-73
2022/12/21 04:58:44;;;;;;;0.50;0.50;;;2.00;99.90;;;;;;5077372;28;20188;-74
2022/12/21 05:01:15;;;;;;;0.50;0.50;;;2.00;99.90;;;;;;5095429;28;20234;-73
2022/12/21 05:03:41;;;;;;;0.50;0.50;;;2.00;99.90;;;;;;5108838;28;20239;-74
2022/12/21 05:06:09;;;;;;;0.50;0.50;;;2.00;99.90;;;;;;5115653;28;20171;-74
2022/12/21 05:08:35;;;;;;;0.60;0.60;;;2.10;99.90;;;;;;5116058;28;20187;-74
2022/12/21 05:11:16;;;;;;;0.50;0.50;;;2.10;99.90;;;;;;5115654;28;20175;-74
2022/12/21 05:13:42;;;;;;;0.50;0.50;;;2.10;99.90;;;;;;5115811;28;20162;-73
2022/12/21 05:16:11;;;;;;;0.70;0.70;;;2.00;99.90;;;;;;5115492;28;20166;-74
2022/12/21 05:18:37;;;;;;;0.40;0.40;;;2.00;99.90;;;;;;5115292;28;20178;-74
2022/12/21 05:21:03;;;;;;;0.50;0.50;;;2.00;99.90;;;;;;5115310;28;20618;-74
2022/12/21 05:23:28;;;;;;;0.60;0.60;;;2.10;99.90;;;;;;5115677;28;20171;-74
2022/12/21 05:25:54;;;;;;;0.60;0.60;;;2.10;99.90;;;;;;5115783;28;20471;-75
2022/12/21 05:28:20;;;;;;;0.50;0.50;;;2.10;99.90;;;;;;5097297;28;20565;-75
2022/12/21 05:30:45;;;;;;;0.60;0.60;;;2.10;99.90;;;;;;5115421;28;20155;-74
2022/12/21 05:33:11;;;;;;;0.68;0.68;;;2.10;99.90;;;;;;5115754;28;20205;-74
2022/12/21 05:35:39;;;;;;;2.35;1.27;;;2.10;99.90;;;;;;5114912;28;20198;-75
2022/12/21 05:38:06;;;;;;;0.70;0.70;;;2.10;99.90;;;;;;5114695;28;20181;-74
2022/12/21 05:40:33;;;;;;;0.50;0.50;;;2.10;99.90;;;;;;5115261;28;20155;-74
2022/12/21 05:42:59;;;;;;;0.50;0.50;;;2.00;99.90;;;;;;5115347;28;20231;-74
2022/12/21 05:45:25;;;;;;;0.68;0.68;;;2.00;99.90;;;;;;5115515;28;20255;-75
2022/12/21 05:47:50;;;;;;;0.50;0.50;;;2.00;99.90;;;;;;5115166;28;20657;-75
2022/12/21 05:50:16;;;;;;;0.60;0.60;;;2.00;99.90;;;;;;5096817;28;20221;-74
2022/12/21 05:52:42;;;;;;;0.68;0.68;;;2.00;99.90;;;;;;5114956;28;20163;-72
2022/12/21 05:55:08;;;;;;;0.55;0.55;;;2.00;99.90;;;;;;5096910;28;20626;-73
2022/12/21 05:57:34;;;;;;;0.60;0.60;;;2.00;99.90;;;;;;5115055;28;20155;-73
2022/12/21 05:59:59;;;;;;;0.85;0.85;;;2.00;99.90;;;;;;5096798;28;20640;-73
2022/12/21 06:02:25;;;;;;;0.50;0.50;;;2.00;99.90;;;;;;5093145;28;20230;-73
2022/12/21 06:04:51;;;;;;;0.57;0.57;;;2.00;99.90;;;;;;5094655;28;20202;-73
2022/12/21 06:07:17;;;;;;;0.50;0.50;;;2.00;99.90;;;;;;5094430;28;20209;-73
2022/12/21 06:09:43;;;;;;;0.57;0.57;;;2.10;99.90;;;;;;5076344;28;20555;-73
2022/12/21 06:12:08;;;;;;;0.65;0.65;;;2.10;99.90;;;;;;5094502;28;20157;-74
2022/12/21 06:14:35;;;;;;;0.52;0.52;;;2.10;99.90;;;;;;5093625;28;20528;-74
2022/12/21 06:17:00;;;;;;;0.55;0.55;;;2.20;99.90;;;;;;5094191;28;20171;-72
2022/12/21 06:19:26;;;;;;;0.50;0.50;;;2.20;99.90;;;;;;5094506;28;20184;-73
2022/12/21 06:21:52;;;;;;;0.50;0.50;;;2.20;99.90;;;;;;5094303;28;20179;-74
2022/12/21 06:24:17;;;;;;;0.50;0.50;;;2.10;99.90;;;;;;5094120;28;20247;-73
2022/12/21 06:26:43;;;;;;;0.55;0.55;;;2.10;99.90;;;;;;5094112;28;20157;-73
2022/12/21 06:29:09;;;;;;;0.50;0.50;;;2.10;99.90;;;;;;5094026;28;20188;-74
2022/12/21 06:31:34;;;;;;;0.50;0.50;;;2.10;99.90;;;;;;5094060;28;20160;-73
2022/12/21 06:34:00;;;;;;;0.50;0.50;;;2.10;99.90;;;;;;5093998;28;20176;-73
2022/12/21 06:36:26;;;;;;;0.60;0.60;;;2.10;99.90;;;;;;5094125;28;20210;-73
2022/12/21 06:38:51;;;;;;;0.60;0.60;;;2.10;99.90;;;;;;5093082;28;20323;-74
2022/12/21 06:41:19;;;;;;;0.52;0.52;;;2.10;99.90;;;;;;5094011;28;20513;-74
2022/12/21 06:43:45;;;;;;;0.60;0.60;;;2.20;99.90;;;;;;5093924;28;20522;-73
2022/12/21 06:46:16;;;;;;;0.50;0.50;;;2.20;99.90;;;;;;5093993;28;20160;-73
2022/12/21 06:48:42;;;;;;;0.60;0.60;;;2.20;99.90;;;;;;5093481;28;20223;-73
2022/12/21 06:51:14;;;;;;;0.52;0.52;;;2.30;99.90;;;;;;5093836;28;20159;-73
2022/12/21 06:53:42;;;;;;;0.50;0.50;;;2.30;99.90;;;;;;5093698;28;20625;-73
2022/12/21 06:56:11;;;;;;;0.50;0.50;;;2.40;99.90;;;;;;5092063;28;20221;-73
2022/12/21 06:58:37;;;;;;;0.50;0.50;;;2.40;99.90;;;;;;5073645;28;20164;-73
2022/12/21 07:01:04;;;;;;;0.50;0.50;;;2.30;99.90;;;;;;5073557;28;20162;-73
2022/12/21 07:03:30;;;;;;;0.63;0.63;;;2.40;99.90;;;;;;5064050;28;20228;-73
2022/12/21 07:05:56;;;;;;;0.47;0.47;;;2.40;99.90;;;;;;5086319;28;20188;-73
2022/12/21 07:08:21;;;;;;;0.55;0.55;;;2.40;99.90;;;;;;5093679;28;20192;-73
2022/12/21 07:10:47;;;;;;;0.50;0.50;;;2.40;99.90;;;;;;5092350;28;20172;-73
2022/12/21 07:13:13;;;;;;;0.60;0.60;;;2.40;99.90;;;;;;5093553;28;20638;-73
2022/12/21 07:15:39;;;;;;;0.57;0.57;;;2.40;99.90;;;;;;5093551;28;20155;-73
2022/12/21 07:18:05;;;;;;;0.57;0.57;;;2.40;99.90;;;;;;5093962;28;20177;-73
2022/12/21 07:20:30;;;;;;;0.60;0.60;;;2.40;99.90;;;;;;5093704;28;20148;-73
2022/12/21 07:22:56;;;;;;;0.60;0.60;;;2.40;99.90;;;;;;5093602;28;20159;-73
2022/12/21 07:25:22;;;;;;;0.60;0.60;;;2.40;99.90;;;;;;5093781;28;20685;-73
2022/12/21 07:27:47;;;;;;;0.68;0.68;;;2.40;99.90;;;;;;5093609;28;20244;-73
2022/12/21 07:30:13;;;;;;;0.73;0.73;;;2.40;99.90;;;;;;5092525;28;20204;-74
2022/12/21 07:32:39;;;;;;;0.52;0.52;;;2.40;99.90;;;;;;5093320;28;20617;-73
2022/12/21 07:35:06;;;;;;;0.60;0.60;;;2.40;99.90;;;;;;5092803;28;20666;-74
2022/12/21 07:37:32;;;;;;;0.60;0.60;;;2.40;99.90;;;;;;5090544;28;20203;-73
2022/12/21 07:39:58;;;;;;;0.50;0.50;;;2.40;99.90;;;;;;5073444;28;20161;-73
2022/12/21 07:42:24;;;;;;;0.60;0.60;;;2.30;99.90;;;;;;5073318;28;20222;-73
2022/12/21 07:44:49;;;;;;;0.50;0.50;;;2.30;99.90;;;;;;5080669;28;20172;-73
2022/12/21 07:47:15;;;;;;;0.55;0.55;;;2.30;99.90;;;;;;5093292;28;20156;-73
2022/12/21 07:49:41;;;;;;;0.50;0.50;;;2.30;99.90;;;;;;5095757;28;20180;-73
2022/12/21 07:52:07;;;;;;;0.60;0.60;;;2.30;99.90;;;;;;5096117;28;20180;-73
2022/12/21 07:54:32;;;;;;;0.60;0.60;;;2.30;99.90;;;;;;5096944;28;20306;-73
2022/12/21 07:56:59;;;;;;;0.50;0.50;;;2.30;99.90;;;;;;5096895;28;20152;-72
2022/12/21 07:59:25;;;;;;;0.52;0.52;;;2.30;99.90;;;;;;5095412;28;20200;-73
2022/12/21 08:01:50;;;;;;;0.60;0.60;;;2.40;99.90;;;;;;5095277;28;20253;-73
2022/12/21 08:04:16;;;;;;;0.60;0.60;;;2.40;99.90;;;;;;5096452;28;20238;-73
2022/12/21 08:06:42;;;;;;;0.57;0.57;;;2.40;99.90;;;;;;5096652;28;20163;-73
2022/12/21 08:09:09;;;;;;;0.50;0.50;;;2.50;99.90;;;;;;5096308;28;20247;-73
2022/12/21 08:11:35;;;;;;;0.50;0.50;;;2.60;99.90;;;;;;5077593;28;20156;-73
2022/12/21 08:14:00;;;;;;;0.52;0.52;;;2.80;99.90;;;;;;5078461;28;20222;-73
2022/12/21 08:16:26;;;;;;;0.60;0.60;;;2.90;99.90;;;;;;5096357;28;20684;-73
2022/12/21 08:18:54;;;;;;;0.60;0.60;;;3.20;99.90;;;;;;5096455;28;20160;-73
2022/12/21 08:21:20;;;;;;;0.63;0.63;;;3.40;99.90;;;;;;5096332;28;20161;-73
2022/12/21 08:23:47;;;;;;;0.60;0.60;;;3.60;99.90;;;;;;5095351;28;20188;-73
2022/12/21 08:26:14;;;;;;;1.00;0.95;;;3.60;99.90;;;;;;5078028;28;20649;-73
2022/12/21 08:28:40;;;;;;;0.63;0.63;;;3.50;99.90;;;;;;5096076;28;20199;-73
2022/12/21 08:31:15;;;;;;;0.50;0.50;;;3.50;99.90;;;;;;5096128;28;20156;-73
2022/12/21 08:33:42;;;;;;;0.50;0.50;;;3.40;99.90;;;;;;5096164;28;20156;-74
2022/12/21 08:36:09;;;;;;;0.52;0.52;;;3.50;99.90;;;;;;5077531;28;20196;-73
2022/12/21 08:38:35;;;;;;;1.02;0.95;;;3.60;99.90;;;;;;5083593;28;20205;-74
2022/12/21 08:41:02;;;;;;;0.60;0.60;;;3.60;99.90;;;;;;5064229;28;20204;-73
2022/12/21 08:43:27;;;;;;;0.70;0.70;;;3.50;99.90;;;;;;5095294;28;20193;-73
2022/12/21 08:45:53;;;;;;;0.60;0.60;;;3.60;99.90;;;;;;5095515;28;20692;-73
2022/12/21 08:48:19;;;;;;;0.60;0.60;;;3.60;99.90;;;;;;5095199;28;20199;-73
2022/12/21 08:50:53;;;;;;;0.50;0.50;;;3.50;99.90;;;;;;5076422;28;20663;-73
2022/12/21 08:53:19;;;;;;;0.60;0.60;;;3.50;99.90;;;;;;5074875;28;20732;-73
2022/12/21 08:55:46;;;;;;;0.70;0.70;;;3.40;99.90;;;;;;5074246;28;20196;-73
2022/12/21 08:58:12;;;;;;;0.60;0.60;;;3.40;99.90;;;;;;5074892;28;20614;-73
2022/12/21 09:00:38;;;;;;;0.50;0.50;;;3.30;99.90;;;;;;5074227;28;20205;-73
2022/12/21 09:03:06;;;;;;;0.52;0.52;;;3.30;99.90;;;;;;5082806;28;20226;-73
2022/12/21 09:05:32;;;;;;;0.60;0.60;;;3.30;99.90;;;;;;5096635;28;20294;-73
2022/12/21 09:07:59;;;;;;;0.68;0.68;;;3.20;99.90;;;;;;5115159;28;20187;-73
2022/12/21 09:10:25;;;;;;;0.60;0.60;;;3.30;99.90;;;;;;5115173;28;20203;-73
2022/12/21 09:12:51;;;;;;;0.65;0.65;;;3.30;99.90;;;;;;5097031;28;20195;-73
2022/12/21 09:15:16;;;;;;;0.60;0.60;;;3.20;99.90;;;;;;5115310;28;20219;-73
2022/12/21 09:17:42;;;;;;;1.42;1.35;;;3.20;99.90;;;;;;5115386;28;20278;-75
2022/12/21 09:20:08;;;;;;;0.50;0.50;;;3.20;99.90;;;;;;5115200;28;20183;-74
2022/12/21 09:22:34;;;;;;;0.82;0.82;;;3.20;99.90;;;;;;5115047;28;20685;-73
2022/12/21 09:25:00;;;;;;;0.60;0.60;;;3.20;99.90;;;;;;5114996;28;20249;-73
2022/12/21 09:27:26;;;;;;;0.50;0.50;;;3.20;99.90;;;;;;5115042;28;20274;-73
2022/12/21 09:29:52;;;;;;;0.60;0.60;;;3.20;99.90;;;;;;5114878;28;20684;-74
2022/12/21 09:32:17;;;;;;;0.60;0.60;;;3.10;99.90;;;;;;5114853;28;20194;-73
2022/12/21 09:34:43;;;;;;;0.70;0.70;;;3.10;99.90;;;;;;5114962;28;20664;-73
2022/12/21 09:37:09;;;;;;;0.40;0.40;;;3.10;99.90;;;;;;5114644;28;20257;-73
2022/12/21 09:39:34;;;;;;;0.60;0.60;;;3.20;99.90;;;;;;5096224;28;20200;-73
2022/12/21 09:42:38;;;;;;;0.52;0.52;;;3.10;99.90;;;;;;5114892;28;20270;-73
2022/12/21 09:45:30;;;;;;;0.57;0.57;;;3.20;99.90;;;;;;5112590;28;20199;-73
2022/12/21 09:48:02;;;;;;;0.70;0.70;;;3.20;99.90;;;;;;5114568;28;20198;-73
2022/12/21 09:50:34;;;;;;;0.60;0.60;;;3.40;99.90;;;;;;5113748;28;20555;-73
2022/12/21 09:53:28;;;;;;;0.50;0.50;;;3.50;99.90;;;;;;5096173;28;20660;-72
2022/12/21 09:55:57;;;;;;;0.60;0.60;;;3.50;99.90;;;;;;5084311;28;20232;-75
2022/12/21 09:58:42;;;;;;;0.60;0.60;;;3.60;99.90;;;;;;5114441;28;20195;-73
2022/12/21 10:01:26;;;;;;;0.70;0.70;;;3.50;99.90;;;;;;5114335;28;20215;-73
2022/12/21 10:04:10;;;;;;;1.00;1.00;;;3.50;99.90;;;;;;5114237;28;20230;-73
2022/12/21 10:06:36;;;;;;;0.50;0.50;;;3.50;99.90;;;;;;5094030;28;20192;-75
2022/12/21 10:09:18;;;;;;;0.50;0.50;;;3.50;99.90;;;;;;5093976;28;20212;-73
2022/12/21 10:12:02;;;;;;;0.50;0.50;;;3.40;99.90;;;;;;5093475;28;20188;-73
2022/12/21 10:14:36;;;;;;;0.60;0.60;;;3.40;99.90;;;;;;5093556;28;20188;-73
2022/12/21 10:17:29;;;;;;;0.60;0.60;;;3.40;99.90;;;;;;5093803;28;20192;-73
2022/12/21 10:20:29;;;;;;;0.60;0.60;;;3.40;99.90;;;;;;5075625;28;20662;-74
2022/12/21 10:23:00;;;;;;;13.15;2.45;;;3.50;99.90;;;;;;5094218;28;20199;-73
2022/12/21 10:25:39;;;;;;;0.60;0.60;;;3.60;99.90;;;;;;5075783;28;20196;-73
2022/12/21 10:28:35;;;;;;;0.60;0.60;;;3.60;99.90;;;;;;5093446;28;20206;-73
2022/12/21 10:31:24;;;;;;;0.52;0.52;;;3.70;99.90;;;;;;5075621;28;20679;-74
2022/12/21 10:33:54;;;;;;;0.60;0.60;;;3.90;99.90;;;;;;5085179;28;20191;-73
2022/12/21 10:36:23;;;;;;;0.60;0.60;;;3.90;99.90;;;;;;5113536;28;20191;-72
2022/12/21 10:38:49;;;;;;;0.60;0.60;;;4.00;99.90;;;;;;5113445;28;20200;-74
2022/12/21 10:41:23;;;;;;;0.60;0.60;;;4.00;99.90;;;;;;5095597;28;20195;-76
2022/12/21 10:43:50;;;;;;;0.60;0.60;;;4.00;99.90;;;;;;5113905;28;20219;-76
2022/12/21 10:46:18;;;;;;;0.50;0.50;;;4.00;99.90;;;;;;5112674;28;20192;-74
2022/12/21 10:48:47;;;;;;;0.50;0.50;;;4.00;99.90;;;;;;5113664;28;20199;-76
2022/12/21 10:51:27;;;;;;;0.60;0.60;;;3.80;99.90;;;;;;5095224;28;20195;-73
2022/12/21 10:54:04;;;;;;;0.70;0.70;;;3.90;99.90;;;;;;5094785;28;20207;-72
2022/12/21 10:56:33;;;;;;;0.70;0.70;;;3.90;99.90;;;;;;5094833;28;20813;-72
2022/12/21 10:59:29;;;;;;;0.60;0.60;;;3.90;99.90;;;;;;5113435;28;20240;-71
2022/12/21 11:01:55;;;;;;;0.65;0.65;;;3.70;99.90;;;;;;5111104;28;20222;-72
2022/12/21 11:04:21;;;;;;;0.50;0.50;;;3.80;99.90;;;;;;5091434;28;20702;-72
2022/12/21 11:07:04;;;;;;;0.50;0.50;;;3.80;99.90;;;;;;5092932;28;20723;-73
2022/12/21 11:09:33;;;;;;;0.60;0.60;;;3.80;99.90;;;;;;5091886;28;20216;-73
2022/12/21 11:12:18;;;;;;;0.60;0.60;;;3.90;99.90;;;;;;5093113;28;20275;-73
2022/12/21 11:14:43;;;;;;;0.60;0.60;;;3.80;99.90;;;;;;5092969;28;20192;-74
2022/12/21 11:17:21;;;;;;;0.90;0.90;;;3.90;99.90;;;;;;5092970;28;20184;-73
2022/12/21 11:19:50;;;;;;;0.50;0.50;;;3.90;99.90;;;;;;5093129;28;20640;-73
2022/12/21 11:22:22;;;;;;;0.60;0.60;;;3.90;99.90;;;;;;5093205;28;20304;-73
2022/12/21 11:24:50;;;;;;;0.60;0.60;;;3.70;99.90;;;;;;5095907;28;20184;-73
2022/12/21 11:27:27;;;;;;;0.60;0.60;;;3.50;99.90;;;;;;5096865;28;20650;-73
2022/12/21 11:29:56;;;;;;;0.40;0.40;;;3.40;99.90;;;;;;5096740;28;20260;-73
2022/12/21 11:32:23;;;;;;;0.60;0.60;;;3.20;99.90;;;;;;5096818;28;20665;-73
2022/12/21 11:34:56;;;;;;;0.60;0.60;;;3.20;99.90;;;;;;5095598;28;20629;-73
2022/12/21 11:37:37;;;;;;;0.60;0.60;;;3.00;99.90;;;;;;5095880;28;20310;-73
2022/12/21 11:40:15;;;;;;;0.60;0.60;;;3.00;99.90;;;;;;5096775;28;20202;-73
2022/12/21 11:43:02;;;;;;;0.80;0.80;;;2.90;99.90;;;;;;5095284;28;20243;-73
2022/12/21 11:46:05;;;;;;;0.65;0.65;;;2.80;99.90;;;;;;5095167;28;20200;-72
2022/12/21 11:48:30;;;;;;;0.65;0.65;;;3.00;99.90;;;;;;5096223;28;20204;-73
2022/12/21 11:51:18;;;;;;;2.75;1.40;;;3.00;99.90;;;;;;5096523;28;20196;-73
2022/12/21 11:53:50;;;;;;;0.50;0.50;;;3.00;99.90;;;;;;5094177;28;20364;-73
2022/12/21 11:56:49;;;;;;;0.77;0.77;;;3.00;99.90;;;;;;5096325;28;20216;-73
2022/12/21 11:59:17;;;;;;;0.60;0.60;;;3.00;99.90;;;;;;5075993;28;20218;-72
2022/12/21 12:02:22;;;;;;;0.63;0.63;;;3.00;99.90;;;;;;5075788;28;20211;-73
2022/12/21 12:05:00;;;;;;;0.70;0.70;;;3.10;99.90;;;;;;5096100;28;20719;-72
2022/12/21 12:07:44;;;;;;;0.70;0.70;;;3.00;99.90;;;;;;5095928;28;20192;-73
2022/12/21 12:10:40;;;;;;;0.70;0.70;;;3.00;99.90;;;;;;5078182;28;20287;-73
2022/12/21 12:13:18;;;;;;;0.50;0.50;;;3.00;99.90;;;;;;5096045;28;20184;-72
2022/12/21 12:16:27;;;;;;;0.60;0.60;;;3.00;99.90;;;;;;5094499;28;20245;-73
2022/12/21 12:19:09;;;;;;;0.70;0.70;;;3.00;99.90;;;;;;5077655;28;20192;-73
2022/12/21 12:21:56;;;;;;;0.70;0.70;;;3.00;99.90;;;;;;5077513;28;20212;-73
2022/12/21 12:24:21;;;;;;;0.63;0.63;;;3.10;99.90;;;;;;5077465;28;20204;-73
2022/12/21 12:26:50;;;;;;;0.55;0.55;;;3.00;99.90;;;;;;5091012;28;20191;-73
2022/12/21 12:29:42;;;;;;;0.80;0.80;;;3.00;99.90;;;;;;5115998;28;20194;-73
2022/12/21 12:32:22;;;;;;;1.10;1.00;;;3.00;99.90;;;;;;5093705;28;20234;-73
2022/12/21 12:35:39;;;;;;;0.57;0.57;;;3.10;99.90;;;;;;5115357;28;20303;-73
2022/12/21 12:38:27;;;;;;;0.50;0.50;;;3.20;99.90;;;;;;5073776;28;20287;-73
2022/12/21 12:41:15;;;;;;;0.60;0.60;;;3.30;99.90;;;;;;5109047;28;20218;-73
2022/12/21 12:43:56;;;;;;;0.52;0.52;;;3.30;99.90;;;;;;5115726;28;20198;-72
2022/12/21 12:46:33;;;;;;;0.70;0.70;;;3.40;99.90;;;;;;5115530;28;20188;-72
2022/12/21 12:49:08;;;;;;;0.55;0.55;;;3.40;99.90;;;;;;5115703;28;20202;-72
2022/12/21 12:51:52;;;;;;;0.50;0.50;;;3.30;99.90;;;;;;5097361;28;20294;-72
2022/12/21 12:54:39;;;;;;;0.60;0.60;;;3.40;99.90;;;;;;5115427;28;20730;-73
2022/12/21 12:57:19;;;;;;;0.55;0.55;;;3.40;99.90;;;;;;5115649;28;20188;-73
2022/12/21 13:00:01;;;;;;;0.60;0.60;;;3.40;99.90;;;;;;5115531;28;20240;-73
2022/12/21 13:02:35;;;;;;;0.60;0.60;;;3.50;99.90;;;;;;5112075;28;20232;-73
2022/12/21 13:05:29;;;;;;;0.70;0.70;;;3.50;99.90;;;;;;5076942;28;20207;-72
2022/12/21 13:08:32;;;;;;;0.50;0.50;;;3.30;99.90;;;;;;5076724;28;20192;-73
2022/12/21 13:11:23;;;;;;;0.60;0.60;;;3.30;99.90;;;;;;5069435;28;20211;-73
2022/12/21 13:14:31;;;;;;;0.63;0.63;;;3.20;99.90;;;;;;5094572;28;20215;-72
2022/12/21 13:17:21;;;;;;;0.70;0.70;;;3.10;99.90;;;;;;5085483;28;20212;-73
2022/12/21 13:19:48;;;;;;;0.50;0.50;;;3.00;99.90;;;;;;5094780;28;20333;-73
2022/12/21 13:22:17;;;;;;;0.73;0.73;;;3.00;99.90;;;;;;5094655;28;20188;-72
2022/12/21 13:24:54;;;;;;;0.60;0.60;;;2.90;99.90;;;;;;5094708;28;20187;-73
2022/12/21 13:27:26;;;;;;;0.50;0.50;;;2.90;99.90;;;;;;5094568;28;20527;-72
2022/12/21 13:30:00;;;;;;;0.65;0.65;;;2.90;99.90;;;;;;5093836;28;20211;-72
2022/12/21 13:32:33;;;;;;;0.70;0.70;;;2.80;99.90;;;;;;5074375;28;20280;-72
2022/12/21 13:35:05;;;;;;;0.60;0.60;;;2.70;99.90;;;;;;5074356;28;20239;-72
2022/12/21 13:37:31;;;;;;;0.60;0.60;;;2.50;99.90;;;;;;5055903;28;20203;-73
2022/12/21 13:40:19;;;;;;;0.68;0.68;;;2.50;99.90;;;;;;5074223;28;20200;-73